sensor_id;sensor_type;location;lat;lon;timestamp;pressure;altitude;pressure_sealevel;temperature;humidity
22000;BME280;11164;48.818;2.322;2023-02-04T00:01:15;102586.44;;;11.28;48.44
22000;BME280;11164;48.818;2.322;2023-02-04T00:03:40;102587.59;;;11.07;49.14
22000;BME280;11164;48.818;2.322;2023-02-04T00:06:05;102578.84;;;10.96;49.22
22000;BME280;11164;48.818;2.322;2023-02-04T00:08:31;102581.56;;;10.96;49.37
22000;BME280;11164;48.818;2.322;2023-02-04T00:10:56;102574.88;;;11.00;49.25
22000;BME280;11164;48.818;2.322;2023-02-04T00:13:22;102578.16;;;10.94;49.22
22000;BME280;11164;48.818;2.322;2023-02-04T00:15:47;102585.03;;;10.88;49.53
22000;BME280;11164;48.818;2.322;2023-02-04T00:18:12;102579.25;;;10.83;49.46
22000;BME280;11164;48.818;2.322;2023-02-04T00:20:38;102576.78;;;10.90;49.45
22000;BME280;11164;48.818;2.322;2023-02-04T00:23:03;102586.84;;;10.87;49.40
22000;BME280;11164;48.818;2.322;2023-02-04T00:25:28;102572.53;;;11.05;49.02
22000;BME280;11164;48.818;2.322;2023-02-04T00:27:54;102581.03;;;11.10;48.88
22000;BME280;11164;48.818;2.322;2023-02-04T00:30:19;102568.41;;;11.11;48.81
22000;BME280;11164;48.818;2.322;2023-02-04T00:32:45;102569.69;;;11.06;49.03
22000;BME280;11164;48.818;2.322;2023-02-04T00:35:10;102572.00;;;11.01;49.19
22000;BME280;11164;48.818;2.322;2023-02-04T00:37:36;102573.25;;;11.07;49.08
22000;BME280;11164;48.818;2.322;2023-02-04T00:40:01;102569.63;;;10.98;49.49
22000;BME280;11164;48.818;2.322;2023-02-04T00:42:26;102578.16;;;10.94;49.62
22000;BME280;11164;48.818;2.322;2023-02-04T00:44:52;102572.69;;;10.85;49.63
22000;BME280;11164;48.818;2.322;2023-02-04T00:47:18;102564.75;;;11.02;49.28
22000;BME280;11164;48.818;2.322;2023-02-04T00:49:43;102569.53;;;11.08;49.04
22000;BME280;11164;48.818;2.322;2023-02-04T00:52:09;102565.28;;;10.87;49.61
22000;BME280;11164;48.818;2.322;2023-02-04T00:54:34;102564.53;;;10.95;49.44
22000;BME280;11164;48.818;2.322;2023-02-04T00:56:59;102571.84;;;11.03;49.47
22000;BME280;11164;48.818;2.322;2023-02-04T00:59:25;102569.16;;;11.03;49.41
22000;BME280;11164;48.818;2.322;2023-02-04T01:01:50;102563.69;;;10.95;49.55
22000;BME280;11164;48.818;2.322;2023-02-04T01:04:16;102570.72;;;11.05;49.34
22000;BME280;11164;48.818;2.322;2023-02-04T01:06:41;102568.38;;;10.93;49.52
22000;BME280;11164;48.818;2.322;2023-02-04T01:09:06;102569.81;;;10.87;49.87
22000;BME280;11164;48.818;2.322;2023-02-04T01:11:32;102574.47;;;10.95;49.64
22000;BME280;11164;48.818;2.322;2023-02-04T01:13:58;102582.97;;;11.00;49.46
22000;BME280;11164;48.818;2.322;2023-02-04T01:16:24;102582.72;;;10.93;49.66
22000;BME280;11164;48.818;2.322;2023-02-04T01:18:49;102586.97;;;10.96;49.62
22000;BME280;11164;48.818;2.322;2023-02-04T01:21:15;102586.03;;;10.87;49.80
22000;BME280;11164;48.818;2.322;2023-02-04T01:23:40;102587.03;;;10.86;49.80
22000;BME280;11164;48.818;2.322;2023-02-04T01:26:06;102578.31;;;10.92;49.67
22000;BME280;11164;48.818;2.322;2023-02-04T01:28:31;102579.09;;;10.84;49.79
22000;BME280;11164;48.818;2.322;2023-02-04T01:30:57;102578.75;;;10.87;49.98
22000;BME280;11164;48.818;2.322;2023-02-04T01:33:22;102581.56;;;10.96;49.79
22000;BME280;11164;48.818;2.322;2023-02-04T01:35:47;102576.09;;;11.05;49.47
22000;BME280;11164;48.818;2.322;2023-02-04T01:38:13;102589.13;;;11.10;49.34
22000;BME280;11164;48.818;2.322;2023-02-04T01:40:39;102596.81;;;11.05;49.59
22000;BME280;11164;48.818;2.322;2023-02-04T01:43:05;102588.28;;;11.10;49.38
22000;BME280;11164;48.818;2.322;2023-02-04T01:45:31;102595.63;;;11.17;49.30
22000;BME280;11164;48.818;2.322;2023-02-04T01:47:59;102594.75;;;11.17;49.51
22000;BME280;11164;48.818;2.322;2023-02-04T01:50:24;102592.50;;;10.94;50.12
22000;BME280;11164;48.818;2.322;2023-02-04T01:52:50;102589.16;;;10.82;50.32
22000;BME280;11164;48.818;2.322;2023-02-04T01:55:21;102590.78;;;10.75;50.72
22000;BME280;11164;48.818;2.322;2023-02-04T01:57:49;102592.44;;;10.48;51.08
22000;BME280;11164;48.818;2.322;2023-02-04T02:00:23;102589.94;;;10.75;50.56
22000;BME280;11164;48.818;2.322;2023-02-04T02:02:50;102588.22;;;10.74;50.35
22000;BME280;11164;48.818;2.322;2023-02-04T02:05:20;102588.47;;;10.80;50.44
22000;BME280;11164;48.818;2.322;2023-02-04T02:07:47;102587.09;;;10.76;50.55
22000;BME280;11164;48.818;2.322;2023-02-04T02:10:13;102583.44;;;10.67;50.61
22000;BME280;11164;48.818;2.322;2023-02-04T02:12:40;102577.34;;;10.65;50.67
22000;BME280;11164;48.818;2.322;2023-02-04T02:15:07;102581.84;;;10.75;50.38
22000;BME280;11164;48.818;2.322;2023-02-04T02:17:33;102576.16;;;10.78;50.42
22000;BME280;11164;48.818;2.322;2023-02-04T02:19:58;102580.34;;;10.62;50.89
22000;BME280;11164;48.818;2.322;2023-02-04T02:25:11;102580.06;;;10.65;50.85
22000;BME280;11164;48.818;2.322;2023-02-04T02:27:37;102578.19;;;10.66;50.75
22000;BME280;11164;48.818;2.322;2023-02-04T02:30:04;102576.66;;;10.54;50.99
22000;BME280;11164;48.818;2.322;2023-02-04T02:32:30;102563.00;;;10.65;50.83
22000;BME280;11164;48.818;2.322;2023-02-04T02:34:55;102569.34;;;10.74;50.58
22000;BME280;11164;48.818;2.322;2023-02-04T02:37:21;102570.66;;;10.69;50.44
22000;BME280;11164;48.818;2.322;2023-02-04T02:39:46;102562.19;;;10.82;50.60
22000;BME280;11164;48.818;2.322;2023-02-04T02:42:15;102574.00;;;10.81;50.77
22000;BME280;11164;48.818;2.322;2023-02-04T02:44:43;102568.63;;;10.72;50.90
22000;BME280;11164;48.818;2.322;2023-02-04T02:47:12;102567.56;;;10.55;51.51
22000;BME280;11164;48.818;2.322;2023-02-04T02:49:40;102573.88;;;10.73;50.67
22000;BME280;11164;48.818;2.322;2023-02-04T02:52:11;102572.13;;;10.54;51.45
22000;BME280;11164;48.818;2.322;2023-02-04T02:54:37;102579.28;;;10.73;50.78
22000;BME280;11164;48.818;2.322;2023-02-04T02:57:11;102574.34;;;10.68;51.97
22000;BME280;11164;48.818;2.322;2023-02-04T02:59:37;102574.69;;;10.83;50.56
22000;BME280;11164;48.818;2.322;2023-02-04T03:02:02;102575.59;;;10.74;50.72
22000;BME280;11164;48.818;2.322;2023-02-04T03:04:31;102572.28;;;10.80;50.86
22000;BME280;11164;48.818;2.322;2023-02-04T03:06:58;102581.03;;;10.92;50.37
22000;BME280;11164;48.818;2.322;2023-02-04T03:09:25;102573.53;;;10.86;50.70
22000;BME280;11164;48.818;2.322;2023-02-04T03:11:51;102578.31;;;10.92;50.50
22000;BME280;11164;48.818;2.322;2023-02-04T03:14:17;102575.31;;;10.77;50.89
22000;BME280;11164;48.818;2.322;2023-02-04T03:16:43;102581.06;;;10.82;50.85
22000;BME280;11164;48.818;2.322;2023-02-04T03:19:09;102581.41;;;10.79;50.70
22000;BME280;11164;48.818;2.322;2023-02-04T03:21:35;102576.00;;;10.79;50.89
22000;BME280;11164;48.818;2.322;2023-02-04T03:24:01;102572.53;;;10.87;50.70
22000;BME280;11164;48.818;2.322;2023-02-04T03:26:26;102572.81;;;10.84;50.84
22000;BME280;11164;48.818;2.322;2023-02-04T03:28:53;102567.22;;;10.77;51.00
22000;BME280;11164;48.818;2.322;2023-02-04T03:31:19;102571.19;;;10.73;51.26
22000;BME280;11164;48.818;2.322;2023-02-04T03:33:44;102572.41;;;10.61;51.39
22000;BME280;11164;48.818;2.322;2023-02-04T03:36:10;102572.34;;;10.71;51.36
22000;BME280;11164;48.818;2.322;2023-02-04T03:38:35;102579.69;;;10.78;51.07
22000;BME280;11164;48.818;2.322;2023-02-04T03:41:00;102580.31;;;10.72;51.19
22000;BME280;11164;48.818;2.322;2023-02-04T03:43:26;102575.50;;;10.56;51.58
22000;BME280;11164;48.818;2.322;2023-02-04T03:45:51;102577.81;;;10.51;51.88
22000;BME280;11164;48.818;2.322;2023-02-04T03:48:17;102581.03;;;10.64;51.29
22000;BME280;11164;48.818;2.322;2023-02-04T03:50:42;102585.69;;;10.72;51.05
22000;BME280;11164;48.818;2.322;2023-02-04T03:53:08;102586.25;;;10.76;51.15
22000;BME280;11164;48.818;2.322;2023-02-04T03:55:33;102589.63;;;10.78;51.16
22000;BME280;11164;48.818;2.322;2023-02-04T03:57:58;102583.59;;;10.66;51.42
22000;BME280;11164;48.818;2.322;2023-02-04T04:00:24;102580.13;;;10.74;51.20
22000;BME280;11164;48.818;2.322;2023-02-04T04:02:49;102588.31;;;10.82;51.13
22000;BME280;11164;48.818;2.322;2023-02-04T04:05:15;102588.03;;;10.85;50.97
22000;BME280;11164;48.818;2.322;2023-02-04T04:07:41;102599.78;;;10.66;51.66
22000;BME280;11164;48.818;2.322;2023-02-04T04:10:06;102591.25;;;10.71;51.28
22000;BME280;11164;48.818;2.322;2023-02-04T04:12:32;102594.06;;;10.31;52.17
22000;BME280;11164;48.818;2.322;2023-02-04T04:14:57;102593.16;;;10.60;51.77
22000;BME280;11164;48.818;2.322;2023-02-04T04:17:22;102599.78;;;10.56;51.94
22000;BME280;11164;48.818;2.322;2023-02-04T04:19:48;102596.72;;;10.79;51.21
22000;BME280;11164;48.818;2.322;2023-02-04T04:22:14;102594.13;;;10.87;50.82
22000;BME280;11164;48.818;2.322;2023-02-04T04:24:39;102596.91;;;10.77;51.36
22000;BME280;11164;48.818;2.322;2023-02-04T04:27:06;102591.88;;;10.82;51.09
22000;BME280;11164;48.818;2.322;2023-02-04T04:29:31;102595.19;;;10.76;51.25
22000;BME280;11164;48.818;2.322;2023-02-04T04:31:56;102598.69;;;10.59;51.53
22000;BME280;11164;48.818;2.322;2023-02-04T04:34:22;102608.47;;;10.60;51.53
22000;BME280;11164;48.818;2.322;2023-02-04T04:36:47;102602.97;;;10.79;51.18
22000;BME280;11164;48.818;2.322;2023-02-04T04:39:12;102608.44;;;10.87;51.12
22000;BME280;11164;48.818;2.322;2023-02-04T04:41:38;102608.03;;;10.64;51.62
22000;BME280;11164;48.818;2.322;2023-02-04T04:44:03;102605.31;;;10.64;51.61
22000;BME280;11164;48.818;2.322;2023-02-04T04:46:29;102605.97;;;10.76;51.32
22000;BME280;11164;48.818;2.322;2023-02-04T04:48:54;102603.97;;;10.78;51.22
22000;BME280;11164;48.818;2.322;2023-02-04T04:51:19;102605.97;;;10.76;51.37
22000;BME280;11164;48.818;2.322;2023-02-04T04:53:45;102611.34;;;10.58;51.83
22000;BME280;11164;48.818;2.322;2023-02-04T04:56:10;102612.81;;;10.71;51.48
22000;BME280;11164;48.818;2.322;2023-02-04T04:58:36;102616.38;;;10.71;51.30
22000;BME280;11164;48.818;2.322;2023-02-04T05:01:01;102622.06;;;10.68;51.51
22000;BME280;11164;48.818;2.322;2023-02-04T05:03:26;102622.91;;;10.68;51.53
22000;BME280;11164;48.818;2.322;2023-02-04T05:05:52;102614.09;;;10.66;51.59
22000;BME280;11164;48.818;2.322;2023-02-04T05:08:17;102618.06;;;10.72;51.44
22000;BME280;11164;48.818;2.322;2023-02-04T05:10:44;102623.91;;;10.67;51.51
22000;BME280;11164;48.818;2.322;2023-02-04T05:13:11;102623.22;;;10.56;51.88
22000;BME280;11164;48.818;2.322;2023-02-04T05:15:36;102618.88;;;10.45;51.95
22000;BME280;11164;48.818;2.322;2023-02-04T05:18:02;102613.56;;;10.63;51.56
22000;BME280;11164;48.818;2.322;2023-02-04T05:20:27;102609.22;;;10.80;51.39
22000;BME280;11164;48.818;2.322;2023-02-04T05:22:53;102616.28;;;10.53;51.80
22000;BME280;11164;48.818;2.322;2023-02-04T05:25:20;102616.06;;;10.74;51.22
22000;BME280;11164;48.818;2.322;2023-02-04T05:27:46;102621.47;;;10.74;51.39
22000;BME280;11164;48.818;2.322;2023-02-04T05:30:12;102619.47;;;10.76;51.29
22000;BME280;11164;48.818;2.322;2023-02-04T05:32:38;102613.00;;;10.59;51.58
22000;BME280;11164;48.818;2.322;2023-02-04T05:35:04;102615.28;;;10.54;51.68
22000;BME280;11164;48.818;2.322;2023-02-04T05:37:30;102619.25;;;10.60;51.66
22000;BME280;11164;48.818;2.322;2023-02-04T05:39:56;102620.66;;;10.64;51.54
22000;BME280;11164;48.818;2.322;2023-02-04T05:42:21;102626.25;;;10.80;51.28
22000;BME280;11164;48.818;2.322;2023-02-04T05:44:47;102633.09;;;10.75;51.23
22000;BME280;11164;48.818;2.322;2023-02-04T05:47:12;102630.69;;;10.72;51.33
22000;BME280;11164;48.818;2.322;2023-02-04T05:49:38;102635.81;;;10.75;51.28
22000;BME280;11164;48.818;2.322;2023-02-04T05:52:04;102641.22;;;10.65;51.60
22000;BME280;11164;48.818;2.322;2023-02-04T05:54:29;102638.06;;;10.79;50.95
22000;BME280;11164;48.818;2.322;2023-02-04T05:56:54;102633.22;;;10.83;51.01
22000;BME280;11164;48.818;2.322;2023-02-04T05:59:20;102637.91;;;10.81;51.23
22000;BME280;11164;48.818;2.322;2023-02-04T06:01:45;102635.94;;;10.73;51.09
22000;BME280;11164;48.818;2.322;2023-02-04T06:04:10;102633.25;;;10.73;51.31
22000;BME280;11164;48.818;2.322;2023-02-04T06:06:36;102629.84;;;10.71;51.00
22000;BME280;11164;48.818;2.322;2023-02-04T06:09:02;102638.50;;;10.75;51.28
22000;BME280;11164;48.818;2.322;2023-02-04T06:11:27;102643.13;;;10.82;50.70
22000;BME280;11164;48.818;2.322;2023-02-04T06:13:53;102640.91;;;10.78;51.06
22000;BME280;11164;48.818;2.322;2023-02-04T06:16:18;102642.75;;;10.77;51.04
22000;BME280;11164;48.818;2.322;2023-02-04T06:18:43;102643.59;;;10.78;51.25
22000;BME280;11164;48.818;2.322;2023-02-04T06:21:09;102649.00;;;10.78;51.14
22000;BME280;11164;48.818;2.322;2023-02-04T06:23:34;102648.16;;;10.77;51.10
22000;BME280;11164;48.818;2.322;2023-02-04T06:26:01;102642.44;;;10.80;51.11
22000;BME280;11164;48.818;2.322;2023-02-04T06:28:26;102645.69;;;10.84;50.91
22000;BME280;11164;48.818;2.322;2023-02-04T06:30:52;102642.00;;;10.85;50.87
22000;BME280;11164;48.818;2.322;2023-02-04T06:33:17;102646.78;;;10.91;50.72
22000;BME280;11164;48.818;2.322;2023-02-04T06:35:43;102645.69;;;10.84;51.01
22000;BME280;11164;48.818;2.322;2023-02-04T06:38:08;102647.94;;;10.88;50.93
22000;BME280;11164;48.818;2.322;2023-02-04T06:40:33;102650.34;;;10.92;50.79
22000;BME280;11164;48.818;2.322;2023-02-04T06:42:59;102644.44;;;10.78;50.93
22000;BME280;11164;48.818;2.322;2023-02-04T06:45:24;102637.41;;;10.58;51.41
22000;BME280;11164;48.818;2.322;2023-02-04T06:47:49;102639.25;;;10.57;51.63
22000;BME280;11164;48.818;2.322;2023-02-04T06:50:15;102635.59;;;10.58;51.42
22000;BME280;11164;48.818;2.322;2023-02-04T06:52:46;102633.75;;;10.59;51.67
22000;BME280;11164;48.818;2.322;2023-02-04T06:55:12;102632.34;;;10.45;51.90
22000;BME280;11164;48.818;2.322;2023-02-04T06:57:38;102640.44;;;10.45;52.05
22000;BME280;11164;48.818;2.322;2023-02-04T07:00:08;102632.34;;;10.45;51.97
22000;BME280;11164;48.818;2.322;2023-02-04T07:02:34;102638.00;;;10.52;51.87
22000;BME280;11164;48.818;2.322;2023-02-04T07:04:59;102635.28;;;10.61;51.49
22000;BME280;11164;48.818;2.322;2023-02-04T07:07:25;102637.25;;;10.69;51.35
22000;BME280;11164;48.818;2.322;2023-02-04T07:09:51;102640.41;;;10.64;51.41
22000;BME280;11164;48.818;2.322;2023-02-04T07:12:17;102644.25;;;10.52;51.89
22000;BME280;11164;48.818;2.322;2023-02-04T07:14:42;102643.97;;;10.55;51.75
22000;BME280;11164;48.818;2.322;2023-02-04T07:17:07;102638.53;;;10.65;51.42
22000;BME280;11164;48.818;2.322;2023-02-04T07:19:33;102643.59;;;10.78;51.20
22000;BME280;11164;48.818;2.322;2023-02-04T07:21:59;102647.97;;;10.79;51.04
22000;BME280;11164;48.818;2.322;2023-02-04T07:24:24;102643.22;;;10.63;51.45
22000;BME280;11164;48.818;2.322;2023-02-04T07:26:50;102654.13;;;10.71;51.48
22000;BME280;11164;48.818;2.322;2023-02-04T07:29:16;102660.28;;;10.63;51.74
22000;BME280;11164;48.818;2.322;2023-02-04T07:31:43;102665.22;;;10.68;51.50
22000;BME280;11164;48.818;2.322;2023-02-04T07:34:10;102673.59;;;10.65;51.62
22000;BME280;11164;48.818;2.322;2023-02-04T07:36:36;102672.91;;;10.63;51.56
22000;BME280;11164;48.818;2.322;2023-02-04T07:39:01;102676.09;;;10.86;51.24
22000;BME280;11164;48.818;2.322;2023-02-04T07:41:26;102667.13;;;10.85;51.12
22000;BME280;11164;48.818;2.322;2023-02-04T07:43:52;102671.47;;;10.96;50.94
22000;BME280;11164;48.818;2.322;2023-02-04T07:46:17;102687.22;;;11.01;51.04
22000;BME280;11164;48.818;2.322;2023-02-04T07:48:42;102687.06;;;11.02;51.01
22000;BME280;11164;48.818;2.322;2023-02-04T07:51:07;102682.66;;;11.01;50.97
22000;BME280;11164;48.818;2.322;2023-02-04T07:53:34;102686.31;;;11.10;50.81
22000;BME280;11164;48.818;2.322;2023-02-04T07:55:59;102691.97;;;11.17;50.77
22000;BME280;11164;48.818;2.322;2023-02-04T07:58:25;102689.66;;;10.94;51.33
22000;BME280;11164;48.818;2.322;2023-02-04T08:00:50;102692.44;;;10.84;51.49
22000;BME280;11164;48.818;2.322;2023-02-04T08:03:16;102692.66;;;10.91;51.38
22000;BME280;11164;48.818;2.322;2023-02-04T08:05:41;102699.59;;;11.03;51.13
22000;BME280;11164;48.818;2.322;2023-02-04T08:08:06;102700.06;;;11.17;50.99
22000;BME280;11164;48.818;2.322;2023-02-04T08:10:32;102706.09;;;11.11;51.09
22000;BME280;11164;48.818;2.322;2023-02-04T08:12:57;102698.47;;;10.96;51.16
22000;BME280;11164;48.818;2.322;2023-02-04T08:15:22;102696.78;;;10.95;51.33
22000;BME280;11164;48.818;2.322;2023-02-04T08:17:48;102691.34;;;10.77;51.68
22000;BME280;11164;48.818;2.322;2023-02-04T08:20:13;102704.41;;;10.72;51.93
22000;BME280;11164;48.818;2.322;2023-02-04T08:22:39;102697.84;;;10.84;51.54
22000;BME280;11164;48.818;2.322;2023-02-04T08:25:04;102700.69;;;10.73;51.94
22000;BME280;11164;48.818;2.322;2023-02-04T08:27:30;102705.66;;;10.78;52.03
22000;BME280;11164;48.818;2.322;2023-02-04T08:29:55;102709.91;;;10.80;51.70
22000;BME280;11164;48.818;2.322;2023-02-04T08:32:20;102700.13;;;10.79;51.55
22000;BME280;11164;48.818;2.322;2023-02-04T08:34:46;102708.00;;;10.91;51.44
22000;BME280;11164;48.818;2.322;2023-02-04T08:37:13;102703.22;;;11.12;51.06
22000;BME280;11164;48.818;2.322;2023-02-04T08:39:38;102709.13;;;10.98;51.36
22000;BME280;11164;48.818;2.322;2023-02-04T08:42:08;102704.53;;;11.08;51.18
22000;BME280;11164;48.818;2.322;2023-02-04T08:44:33;102714.03;;;11.12;51.27
22000;BME280;11164;48.818;2.322;2023-02-04T08:46:59;102714.25;;;11.19;51.07
22000;BME280;11164;48.818;2.322;2023-02-04T08:49:24;102718.38;;;11.23;51.19
22000;BME280;11164;48.818;2.322;2023-02-04T08:51:49;102711.00;;;11.15;51.46
22000;BME280;11164;48.818;2.322;2023-02-04T08:54:15;102712.13;;;11.22;51.04
22000;BME280;11164;48.818;2.322;2023-02-04T08:56:40;102718.63;;;11.30;50.86
22000;BME280;11164;48.818;2.322;2023-02-04T08:59:05;102722.81;;;11.14;51.39
22000;BME280;11164;48.818;2.322;2023-02-04T09:01:31;102711.81;;;10.98;51.75
22000;BME280;11164;48.818;2.322;2023-02-04T09:03:56;102717.72;;;11.11;51.32
22000;BME280;11164;48.818;2.322;2023-02-04T09:06:21;102722.75;;;11.24;51.20
22000;BME280;11164;48.818;2.322;2023-02-04T09:08:47;102725.22;;;11.17;51.58
22000;BME280;11164;48.818;2.322;2023-02-04T09:11:12;102722.13;;;11.12;51.66
22000;BME280;11164;48.818;2.322;2023-02-04T09:13:39;102721.41;;;11.10;51.69
22000;BME280;11164;48.818;2.322;2023-02-04T09:16:04;102727.28;;;11.05;51.79
22000;BME280;11164;48.818;2.322;2023-02-04T09:18:30;102729.38;;;11.12;51.55
22000;BME280;11164;48.818;2.322;2023-02-04T09:20:57;102733.47;;;11.16;51.47
22000;BME280;11164;48.818;2.322;2023-02-04T09:23:22;102727.22;;;11.15;51.58
22000;BME280;11164;48.818;2.322;2023-02-04T09:25:48;102737.56;;;11.20;51.64
22000;BME280;11164;48.818;2.322;2023-02-04T09:28:14;102724.75;;;11.22;51.08
22000;BME280;11164;48.818;2.322;2023-02-04T09:30:42;102735.00;;;11.46;50.78
22000;BME280;11164;48.818;2.322;2023-02-04T09:33:09;102739.53;;;11.28;51.44
22000;BME280;11164;48.818;2.322;2023-02-04T09:35:35;102736.22;;;11.34;51.23
22000;BME280;11164;48.818;2.322;2023-02-04T09:38:01;102741.72;;;11.14;51.79
22000;BME280;11164;48.818;2.322;2023-02-04T09:40:27;102741.88;;;11.13;51.83
22000;BME280;11164;48.818;2.322;2023-02-04T09:42:55;102740.97;;;11.22;51.50
22000;BME280;11164;48.818;2.322;2023-02-04T09:45:24;102738.63;;;11.09;51.74
22000;BME280;11164;48.818;2.322;2023-02-04T09:47:51;102741.72;;;11.14;51.66
22000;BME280;11164;48.818;2.322;2023-02-04T09:50:20;102743.66;;;11.22;51.48
22000;BME280;11164;48.818;2.322;2023-02-04T09:52:48;102742.41;;;11.16;51.82
22000;BME280;11164;48.818;2.322;2023-02-04T09:55:15;102730.81;;;11.06;51.85
22000;BME280;11164;48.818;2.322;2023-02-04T09:57:41;102745.09;;;11.26;51.60
22000;BME280;11164;48.818;2.322;2023-02-04T10:00:19;102736.44;;;10.95;52.58
22000;BME280;11164;48.818;2.322;2023-02-04T10:02:45;102736.63;;;10.74;52.09
22000;BME280;11164;48.818;2.322;2023-02-04T10:05:23;102758.47;;;10.80;52.90
22000;BME280;11164;48.818;2.322;2023-02-04T10:07:51;102759.66;;;10.68;52.57
22000;BME280;11164;48.818;2.322;2023-02-04T10:10:22;102747.63;;;10.33;53.28
22000;BME280;11164;48.818;2.322;2023-02-04T10:12:50;102767.63;;;10.60;52.67
22000;BME280;11164;48.818;2.322;2023-02-04T10:15:17;102763.59;;;10.83;52.26
22000;BME280;11164;48.818;2.322;2023-02-04T10:17:53;102768.16;;;10.73;52.93
22000;BME280;11164;48.818;2.322;2023-02-04T10:20:22;102759.25;;;10.63;52.66
22000;BME280;11164;48.818;2.322;2023-02-04T10:22:50;102766.19;;;10.56;53.01
22000;BME280;11164;48.818;2.322;2023-02-04T10:25:19;102772.13;;;10.79;52.39
22000;BME280;11164;48.818;2.322;2023-02-04T10:27:49;102768.56;;;10.78;52.21
22000;BME280;11164;48.818;2.322;2023-02-04T10:32:51;102780.28;;;10.40;52.93
22000;BME280;11164;48.818;2.322;2023-02-04T10:35:18;102772.75;;;10.53;52.86
22000;BME280;11164;48.818;2.322;2023-02-04T10:37:44;102776.00;;;10.57;52.85
22000;BME280;11164;48.818;2.322;2023-02-04T10:42:52;102779.25;;;10.70;52.82
22000;BME280;11164;48.818;2.322;2023-02-04T10:45:25;102781.53;;;10.45;53.31
22000;BME280;11164;48.818;2.322;2023-02-04T10:47:52;102781.66;;;10.54;53.37
22000;BME280;11164;48.818;2.322;2023-02-04T10:50:21;102791.19;;;10.67;53.03
22000;BME280;11164;48.818;2.322;2023-02-04T10:52:50;102788.84;;;10.82;52.63
22000;BME280;11164;48.818;2.322;2023-02-04T10:55:18;102789.59;;;10.84;52.77
22000;BME280;11164;48.818;2.322;2023-02-04T10:57:47;102778.72;;;11.04;52.58
22000;BME280;11164;48.818;2.322;2023-02-04T11:00:20;102779.91;;;10.92;53.27
22000;BME280;11164;48.818;2.322;2023-02-04T11:05:31;102777.91;;;10.94;53.01
22000;BME280;11164;48.818;2.322;2023-02-04T11:07:57;102769.03;;;11.11;52.43
22000;BME280;11164;48.818;2.322;2023-02-04T11:10:27;102765.41;;;11.20;52.40
22000;BME280;11164;48.818;2.322;2023-02-04T11:18:28;102765.41;;;11.48;53.44
22000;BME280;11164;48.818;2.322;2023-02-04T11:20:56;102769.81;;;11.49;52.46
22000;BME280;11164;48.818;2.322;2023-02-04T11:23:33;102769.41;;;11.44;52.60
22000;BME280;11164;48.818;2.322;2023-02-04T11:28:54;102771.13;;;11.45;52.95
22000;BME280;11164;48.818;2.322;2023-02-04T11:33:46;102768.06;;;11.58;52.64
22000;BME280;11164;48.818;2.322;2023-02-04T11:36:14;102770.00;;;11.38;52.93
22000;BME280;11164;48.818;2.322;2023-02-04T11:38:45;102756.59;;;11.46;52.97
22000;BME280;11164;48.818;2.322;2023-02-04T11:41:24;102770.09;;;11.28;54.27
22000;BME280;11164;48.818;2.322;2023-02-04T11:43:52;102763.63;;;11.39;53.04
22000;BME280;11164;48.818;2.322;2023-02-04T11:46:19;102767.84;;;11.41;53.11
22000;BME280;11164;48.818;2.322;2023-02-04T11:48:44;102770.75;;;11.58;52.51
22000;BME280;11164;48.818;2.322;2023-02-04T11:51:13;102769.53;;;11.70;52.91
22000;BME280;11164;48.818;2.322;2023-02-04T11:53:40;102758.56;;;11.81;52.59
22000;BME280;11164;48.818;2.322;2023-02-04T11:56:06;102758.44;;;11.91;52.53
22000;BME280;11164;48.818;2.322;2023-02-04T11:58:39;102760.78;;;11.86;52.69
22000;BME280;11164;48.818;2.322;2023-02-04T12:01:23;102758.69;;;11.80;53.02
22000;BME280;11164;48.818;2.322;2023-02-04T12:04:00;102754.34;;;11.41;54.07
22000;BME280;11164;48.818;2.322;2023-02-04T12:06:30;102766.47;;;11.37;53.69
22000;BME280;11164;48.818;2.322;2023-02-04T12:09:07;102768.59;;;11.61;53.37
22000;BME280;11164;48.818;2.322;2023-02-04T12:11:33;102767.25;;;11.75;52.86
22000;BME280;11164;48.818;2.322;2023-02-04T12:14:07;102767.50;;;11.82;52.70
22000;BME280;11164;48.818;2.322;2023-02-04T12:16:40;102763.22;;;11.79;52.82
22000;BME280;11164;48.818;2.322;2023-02-04T12:19:08;102766.53;;;11.73;52.79
22000;BME280;11164;48.818;2.322;2023-02-04T12:21:33;102765.09;;;11.79;52.63
22000;BME280;11164;48.818;2.322;2023-02-04T12:23:59;102762.69;;;11.76;52.76
22000;BME280;11164;48.818;2.322;2023-02-04T12:26:24;102764.81;;;11.72;52.61
22000;BME280;11164;48.818;2.322;2023-02-04T12:28:49;102763.44;;;11.50;52.90
22000;BME280;11164;48.818;2.322;2023-02-04T12:31:15;102767.94;;;11.32;53.58
22000;BME280;11164;48.818;2.322;2023-02-04T12:33:40;102764.06;;;11.34;53.34
22000;BME280;11164;48.818;2.322;2023-02-04T12:36:06;102763.25;;;11.24;53.79
22000;BME280;11164;48.818;2.322;2023-02-04T12:38:31;102768.59;;;11.16;53.42
22000;BME280;11164;48.818;2.322;2023-02-04T12:40:57;102771.94;;;11.28;53.43
22000;BME280;11164;48.818;2.322;2023-02-04T12:43:22;102759.19;;;11.10;53.65
22000;BME280;11164;48.818;2.322;2023-02-04T12:45:48;102763.31;;;11.14;53.65
22000;BME280;11164;48.818;2.322;2023-02-04T12:48:14;102765.22;;;11.32;53.10
22000;BME280;11164;48.818;2.322;2023-02-04T12:50:39;102764.22;;;11.33;53.02
22000;BME280;11164;48.818;2.322;2023-02-04T12:53:05;102762.44;;;11.41;52.89
22000;BME280;11164;48.818;2.322;2023-02-04T12:55:30;102770.81;;;11.48;52.73
22000;BME280;11164;48.818;2.322;2023-02-04T12:57:56;102764.59;;;11.38;52.83
22000;BME280;11164;48.818;2.322;2023-02-04T13:00:22;102764.22;;;11.33;53.08
22000;BME280;11164;48.818;2.322;2023-02-04T13:02:47;102766.56;;;11.46;52.72
22000;BME280;11164;48.818;2.322;2023-02-04T13:05:14;102759.53;;;11.35;53.11
22000;BME280;11164;48.818;2.322;2023-02-04T13:07:40;102745.66;;;11.20;53.27